sensor_id;sensor_type;location;lat;lon;timestamp;temperature;humidity
17053;DHT22;8643;48.824;11.422;2023-09-12T00:02:08;16.60;99.90
17053;DHT22;8643;48.824;11.422;2023-09-12T00:04:37;16.60;99.90
17053;DHT22;8643;48.824;11.422;2023-09-12T00:07:05;16.60;99.90
17053;DHT22;8643;48.824;11.422;2023-09-12T00:09:34;16.60;99.90
17053;DHT22;8643;48.824;11.422;2023-09-12T00:12:03;16.70;99.90
17053;DHT22;8643;48.824;11.422;2023-09-12T00:14:32;16.60;99.90
17053;DHT22;8643;48.824;11.422;2023-09-12T00:17:01;16.70;99.90
17053;DHT22;8643;48.824;11.422;2023-09-12T00:19:30;16.60;99.90
17053;DHT22;8643;48.824;11.422;2023-09-12T00:21:58;16.60;99.90
17053;DHT22;8643;48.824;11.422;2023-09-12T00:24:27;16.50;99.90
17053;DHT22;8643;48.824;11.422;2023-09-12T00:31:53;16.40;99.90
17053;DHT22;8643;48.824;11.422;2023-09-12T00:34:23;16.40;99.90
17053;DHT22;8643;48.824;11.422;2023-09-12T00:36:51;16.30;99.90
17053;DHT22;8643;48.824;11.422;2023-09-12T00:39:19;16.40;99.90
17053;DHT22;8643;48.824;11.422;2023-09-12T00:41:48;16.40;99.90
17053;DHT22;8643;48.824;11.422;2023-09-12T00:44:16;16.40;99.90
17053;DHT22;8643;48.824;11.422;2023-09-12T00:46:46;16.40;99.90
17053;DHT22;8643;48.824;11.422;2023-09-12T00:49:17;16.40;99.90
17053;DHT22;8643;48.824;11.422;2023-09-12T00:51:49;16.40;99.90
17053;DHT22;8643;48.824;11.422;2023-09-12T00:54:19;16.60;99.90
17053;DHT22;8643;48.824;11.422;2023-09-12T00:59:17;16.70;99.90
17053;DHT22;8643;48.824;11.422;2023-09-12T01:01:47;16.80;99.90
17053;DHT22;8643;48.824;11.422;2023-09-12T01:04:16;16.90;99.90
17053;DHT22;8643;48.824;11.422;2023-09-12T01:07:02;16.90;99.90
17053;DHT22;8643;48.824;11.422;2023-09-12T01:09:32;16.90;99.90
17053;DHT22;8643;48.824;11.422;2023-09-12T01:12:01;16.90;99.90
17053;DHT22;8643;48.824;11.422;2023-09-12T01:14:30;16.90;99.90
17053;DHT22;8643;48.824;11.422;2023-09-12T01:16:59;16.90;99.90
17053;DHT22;8643;48.824;11.422;2023-09-12T01:22:14;16.80;99.90
17053;DHT22;8643;48.824;11.422;2023-09-12T01:28:12;16.80;99.90
17053;DHT22;8643;48.824;11.422;2023-09-12T01:30:45;16.80;99.90
17053;DHT22;8643;48.824;11.422;2023-09-12T01:33:16;16.70;99.90
17053;DHT22;8643;48.824;11.422;2023-09-12T01:35:45;16.70;99.90
17053;DHT22;8643;48.824;11.422;2023-09-12T01:38:14;16.50;99.90
17053;DHT22;8643;48.824;11.422;2023-09-12T01:40:46;16.50;99.90
17053;DHT22;8643;48.824;11.422;2023-09-12T01:43:21;16.50;99.90
17053;DHT22;8643;48.824;11.422;2023-09-12T01:45:54;16.50;99.90
17053;DHT22;8643;48.824;11.422;2023-09-12T01:48:28;16.50;99.90
17053;DHT22;8643;48.824;11.422;2023-09-12T01:51:02;16.50;99.90
17053;DHT22;8643;48.824;11.422;2023-09-12T01:53:33;16.50;99.90
17053;DHT22;8643;48.824;11.422;2023-09-12T01:56:04;16.50;99.90
17053;DHT22;8643;48.824;11.422;2023-09-12T01:58:34;16.50;99.90
17053;DHT22;8643;48.824;11.422;2023-09-12T02:01:03;16.50;99.90
17053;DHT22;8643;48.824;11.422;2023-09-12T02:03:32;16.50;99.90
17053;DHT22;8643;48.824;11.422;2023-09-12T02:06:01;16.60;99.90
17053;DHT22;8643;48.824;11.422;2023-09-12T02:08:30;16.60;99.90
17053;DHT22;8643;48.824;11.422;2023-09-12T02:10:58;16.60;99.90
17053;DHT22;8643;48.824;11.422;2023-09-12T02:13:27;16.50;99.90
17053;DHT22;8643;48.824;11.422;2023-09-12T02:16:00;16.50;99.90
17053;DHT22;8643;48.824;11.422;2023-09-12T02:20:59;16.40;99.90
17053;DHT22;8643;48.824;11.422;2023-09-12T02:23:28;16.30;99.90
17053;DHT22;8643;48.824;11.422;2023-09-12T02:25:56;16.30;99.90
17053;DHT22;8643;48.824;11.422;2023-09-12T02:28:24;16.20;99.90
17053;DHT22;8643;48.824;11.422;2023-09-12T02:30:53;16.20;99.90
17053;DHT22;8643;48.824;11.422;2023-09-12T02:33:23;16.20;99.90
17053;DHT22;8643;48.824;11.422;2023-09-12T02:35:51;16.10;99.90
17053;DHT22;8643;48.824;11.422;2023-09-12T02:38:20;16.10;99.90
17053;DHT22;8643;48.824;11.422;2023-09-12T02:40:49;16.00;99.90
17053;DHT22;8643;48.824;11.422;2023-09-12T02:43:17;16.00;99.90
17053;DHT22;8643;48.824;11.422;2023-09-12T02:45:46;16.00;99.90
17053;DHT22;8643;48.824;11.422;2023-09-12T02:48:14;16.00;99.90
17053;DHT22;8643;48.824;11.422;2023-09-12T02:50:45;15.90;99.90
17053;DHT22;8643;48.824;11.422;2023-09-12T02:53:13;15.90;99.90
17053;DHT22;8643;48.824;11.422;2023-09-12T02:55:43;15.90;99.90
17053;DHT22;8643;48.824;11.422;2023-09-12T02:58:11;15.80;99.90
17053;DHT22;8643;48.824;11.422;2023-09-12T03:00:39;15.70;99.90
17053;DHT22;8643;48.824;11.422;2023-09-12T03:05:38;15.60;99.90
17053;DHT22;8643;48.824;11.422;2023-09-12T03:08:08;15.50;99.90
17053;DHT22;8643;48.824;11.422;2023-09-12T03:10:37;15.60;99.90
17053;DHT22;8643;48.824;11.422;2023-09-12T03:13:05;15.60;99.90
17053;DHT22;8643;48.824;11.422;2023-09-12T03:15:36;15.60;99.90
17053;DHT22;8643;48.824;11.422;2023-09-12T03:18:09;15.50;99.90
17053;DHT22;8643;48.824;11.422;2023-09-12T03:20:38;15.50;99.90
17053;DHT22;8643;48.824;11.422;2023-09-12T03:23:08;15.50;99.90
17053;DHT22;8643;48.824;11.422;2023-09-12T03:25:37;15.50;99.90
17053;DHT22;8643;48.824;11.422;2023-09-12T03:30:37;15.50;99.90
17053;DHT22;8643;48.824;11.422;2023-09-12T03:33:07;15.50;99.90
17053;DHT22;8643;48.824;11.422;2023-09-12T03:35:36;15.50;99.90
17053;DHT22;8643;48.824;11.422;2023-09-12T03:38:04;15.40;99.90
17053;DHT22;8643;48.824;11.422;2023-09-12T03:40:35;15.40;99.90
17053;DHT22;8643;48.824;11.422;2023-09-12T03:43:03;15.40;99.90
17053;DHT22;8643;48.824;11.422;2023-09-12T03:45:32;15.30;99.90
17053;DHT22;8643;48.824;11.422;2023-09-12T03:48:00;15.30;99.90
17053;DHT22;8643;48.824;11.422;2023-09-12T03:50:30;15.30;99.90
17053;DHT22;8643;48.824;11.422;2023-09-12T03:52:58;15.20;99.90
17053;DHT22;8643;48.824;11.422;2023-09-12T03:55:28;15.30;99.90
17053;DHT22;8643;48.824;11.422;2023-09-12T03:57:58;15.20;99.90
17053;DHT22;8643;48.824;11.422;2023-09-12T04:00:26;15.30;99.90
17053;DHT22;8643;48.824;11.422;2023-09-12T04:02:55;15.20;99.90
17053;DHT22;8643;48.824;11.422;2023-09-12T04:05:25;15.20;99.90
17053;DHT22;8643;48.824;11.422;2023-09-12T04:07:54;15.20;99.90
17053;DHT22;8643;48.824;11.422;2023-09-12T04:12:51;15.20;99.90
17053;DHT22;8643;48.824;11.422;2023-09-12T04:15:21;15.20;99.90
17053;DHT22;8643;48.824;11.422;2023-09-12T04:17:49;15.10;99.90
17053;DHT22;8643;48.824;11.422;2023-09-12T04:20:18;15.20;99.90
17053;DHT22;8643;48.824;11.422;2023-09-12T04:22:47;15.20;99.90
17053;DHT22;8643;48.824;11.422;2023-09-12T04:25:15;15.20;99.90
17053;DHT22;8643;48.824;11.422;2023-09-12T04:27:47;15.20;99.90
17053;DHT22;8643;48.824;11.422;2023-09-12T04:30:15;15.20;99.90
17053;DHT22;8643;48.824;11.422;2023-09-12T04:32:45;15.20;99.90
17053;DHT22;8643;48.824;11.422;2023-09-12T04:35:14;15.30;99.90
17053;DHT22;8643;48.824;11.422;2023-09-12T04:37:42;15.30;99.90
17053;DHT22;8643;48.824;11.422;2023-09-12T04:40:11;15.30;99.90
17053;DHT22;8643;48.824;11.422;2023-09-12T04:42:40;15.30;99.90
17053;DHT22;8643;48.824;11.422;2023-09-12T04:45:09;15.20;99.90
17053;DHT22;8643;48.824;11.422;2023-09-12T04:47:38;15.30;99.90
17053;DHT22;8643;48.824;11.422;2023-09-12T04:50:09;15.20;99.90
17053;DHT22;8643;48.824;11.422;2023-09-12T04:52:38;15.30;99.90
17053;DHT22;8643;48.824;11.422;2023-09-12T04:55:07;15.20;99.90
17053;DHT22;8643;48.824;11.422;2023-09-12T04:57:36;15.30;99.90
17053;DHT22;8643;48.824;11.422;2023-09-12T05:00:09;15.30;99.90
17053;DHT22;8643;48.824;11.422;2023-09-12T05:02:39;15.40;99.90
17053;DHT22;8643;48.824;11.422;2023-09-12T05:05:09;15.40;99.90
17053;DHT22;8643;48.824;11.422;2023-09-12T05:07:38;15.40;99.90
17053;DHT22;8643;48.824;11.422;2023-09-12T05:10:07;15.50;99.90
17053;DHT22;8643;48.824;11.422;2023-09-12T05:12:36;15.50;99.90
17053;DHT22;8643;48.824;11.422;2023-09-12T05:15:05;15.60;99.90
17053;DHT22;8643;48.824;11.422;2023-09-12T05:22:35;15.60;99.90
17053;DHT22;8643;48.824;11.422;2023-09-12T05:25:04;15.60;99.90
17053;DHT22;8643;48.824;11.422;2023-09-12T05:27:34;15.70;99.90
17053;DHT22;8643;48.824;11.422;2023-09-12T05:30:03;15.80;99.90
17053;DHT22;8643;48.824;11.422;2023-09-12T05:32:32;15.80;99.90
17053;DHT22;8643;48.824;11.422;2023-09-12T05:35:01;15.80;99.90
17053;DHT22;8643;48.824;11.422;2023-09-12T05:37:47;15.80;99.90
17053;DHT22;8643;48.824;11.422;2023-09-12T05:42:45;15.90;99.90
17053;DHT22;8643;48.824;11.422;2023-09-12T05:45:13;16.00;99.90
17053;DHT22;8643;48.824;11.422;2023-09-12T05:47:42;16.30;99.90
17053;DHT22;8643;48.824;11.422;2023-09-12T05:50:11;16.50;99.90
17053;DHT22;8643;48.824;11.422;2023-09-12T05:52:39;16.80;99.90
17053;DHT22;8643;48.824;11.422;2023-09-12T05:55:12;17.10;99.90
17053;DHT22;8643;48.824;11.422;2023-09-12T05:57:41;17.30;99.90
17053;DHT22;8643;48.824;11.422;2023-09-12T06:00:11;17.70;99.90
17053;DHT22;8643;48.824;11.422;2023-09-12T06:02:42;17.80;99.90
17053;DHT22;8643;48.824;11.422;2023-09-12T06:05:11;18.00;99.90
17053;DHT22;8643;48.824;11.422;2023-09-12T06:07:39;18.10;99.90
17053;DHT22;8643;48.824;11.422;2023-09-12T06:10:09;18.50;99.90
17053;DHT22;8643;48.824;11.422;2023-09-12T06:12:38;18.70;99.90
17053;DHT22;8643;48.824;11.422;2023-09-12T06:15:07;18.90;99.90
17053;DHT22;8643;48.824;11.422;2023-09-12T06:17:36;19.60;99.90
17053;DHT22;8643;48.824;11.422;2023-09-12T06:20:06;19.40;99.90
17053;DHT22;8643;48.824;11.422;2023-09-12T06:22:35;17.90;99.90
17053;DHT22;8643;48.824;11.422;2023-09-12T06:25:04;19.80;99.90
17053;DHT22;8643;48.824;11.422;2023-09-12T06:27:33;20.00;99.90
17053;DHT22;8643;48.824;11.422;2023-09-12T06:30:05;20.20;99.90
17053;DHT22;8643;48.824;11.422;2023-09-12T06:35:04;20.70;99.90
17053;DHT22;8643;48.824;11.422;2023-09-12T06:37:33;20.80;99.90
17053;DHT22;8643;48.824;11.422;2023-09-12T06:40:01;20.90;99.90
17053;DHT22;8643;48.824;11.422;2023-09-12T06:42:31;20.90;99.90
17053;DHT22;8643;48.824;11.422;2023-09-12T06:45:00;20.80;99.90
17053;DHT22;8643;48.824;11.422;2023-09-12T06:47:30;20.70;99.90
17053;DHT22;8643;48.824;11.422;2023-09-12T06:49:58;20.60;99.90
17053;DHT22;8643;48.824;11.422;2023-09-12T06:52:27;20.90;99.90
17053;DHT22;8643;48.824;11.422;2023-09-12T06:54:55;18.50;99.90
17053;DHT22;8643;48.824;11.422;2023-09-12T06:57:24;21.20;99.90
17053;DHT22;8643;48.824;11.422;2023-09-12T06:59:52;21.40;99.90
17053;DHT22;8643;48.824;11.422;2023-09-12T07:02:20;21.70;99.90
17053;DHT22;8643;48.824;11.422;2023-09-12T07:04:50;21.90;99.90
17053;DHT22;8643;48.824;11.422;2023-09-12T07:09:48;22.30;99.90
17053;DHT22;8643;48.824;11.422;2023-09-12T07:12:16;22.50;99.90
17053;DHT22;8643;48.824;11.422;2023-09-12T07:14:45;22.50;99.90
17053;DHT22;8643;48.824;11.422;2023-09-12T07:17:13;22.60;99.90
17053;DHT22;8643;48.824;11.422;2023-09-12T07:19:42;22.80;99.90
17053;DHT22;8643;48.824;11.422;2023-09-12T07:22:12;20.50;99.90
17053;DHT22;8643;48.824;11.422;2023-09-12T07:24:41;23.00;99.90
17053;DHT22;8643;48.824;11.422;2023-09-12T07:27:09;23.10;99.90
17053;DHT22;8643;48.824;11.422;2023-09-12T07:29:38;23.30;99.90
17053;DHT22;8643;48.824;11.422;2023-09-12T07:32:06;20.50;99.90
17053;DHT22;8643;48.824;11.422;2023-09-12T07:34:34;23.60;99.90
17053;DHT22;8643;48.824;11.422;2023-09-12T07:37:04;23.60;99.90
17053;DHT22;8643;48.824;11.422;2023-09-12T07:39:34;23.80;99.90
17053;DHT22;8643;48.824;11.422;2023-09-12T07:42:03;23.80;99.90
17053;DHT22;8643;48.824;11.422;2023-09-12T07:44:31;21.40;99.90
17053;DHT22;8643;48.824;11.422;2023-09-12T07:47:01;23.80;99.90
17053;DHT22;8643;48.824;11.422;2023-09-12T07:49:30;24.10;99.90
17053;DHT22;8643;48.824;11.422;2023-09-12T07:51:58;24.10;99.90
17053;DHT22;8643;48.824;11.422;2023-09-12T07:54:26;24.40;99.90
17053;DHT22;8643;48.824;11.422;2023-09-12T07:56:57;24.60;99.90
17053;DHT22;8643;48.824;11.422;2023-09-12T07:59:25;24.90;99.90
17053;DHT22;8643;48.824;11.422;2023-09-12T08:01:53;25.10;99.90
17053;DHT22;8643;48.824;11.422;2023-09-12T08:04:22;25.20;99.90
17053;DHT22;8643;48.824;11.422;2023-09-12T08:06:50;25.40;99.90
17053;DHT22;8643;48.824;11.422;2023-09-12T08:09:49;25.70;99.90
17053;DHT22;8643;48.824;11.422;2023-09-12T08:12:21;25.90;99.90
17053;DHT22;8643;48.824;11.422;2023-09-12T08:14:50;26.00;99.50
17053;DHT22;8643;48.824;11.422;2023-09-12T08:17:19;26.00;99.20
17053;DHT22;8643;48.824;11.422;2023-09-12T08:19:47;26.10;98.60
17053;DHT22;8643;48.824;11.422;2023-09-12T08:22:17;26.10;99.90
17053;DHT22;8643;48.824;11.422;2023-09-12T08:27:14;26.30;99.70
17053;DHT22;8643;48.824;11.422;2023-09-12T08:29:44;26.60;99.90
17053;DHT22;8643;48.824;11.422;2023-09-12T08:32:15;27.00;98.80
17053;DHT22;8643;48.824;11.422;2023-09-12T08:34:43;27.30;98.00
17053;DHT22;8643;48.824;11.422;2023-09-12T08:37:12;27.30;97.90
17053;DHT22;8643;48.824;11.422;2023-09-12T08:39:42;27.80;99.10
17053;DHT22;8643;48.824;11.422;2023-09-12T08:42:13;28.10;97.70
17053;DHT22;8643;48.824;11.422;2023-09-12T08:44:44;28.20;95.90
17053;DHT22;8643;48.824;11.422;2023-09-12T08:47:14;28.40;93.90
17053;DHT22;8643;48.824;11.422;2023-09-12T08:49:45;28.70;94.80
17053;DHT22;8643;48.824;11.422;2023-09-12T08:52:14;28.70;92.10
17053;DHT22;8643;48.824;11.422;2023-09-12T08:54:42;28.70;92.30
17053;DHT22;8643;48.824;11.422;2023-09-12T08:57:12;28.70;91.50
17053;DHT22;8643;48.824;11.422;2023-09-12T08:59:41;28.80;91.00
17053;DHT22;8643;48.824;11.422;2023-09-12T09:02:14;28.70;91.80
17053;DHT22;8643;48.824;11.422;2023-09-12T09:04:46;28.70;92.70
17053;DHT22;8643;48.824;11.422;2023-09-12T09:07:20;28.90;90.10
17053;DHT22;8643;48.824;11.422;2023-09-12T09:12:21;28.90;91.10
17053;DHT22;8643;48.824;11.422;2023-09-12T09:14:51;29.00;90.80
17053;DHT22;8643;48.824;11.422;2023-09-12T09:17:19;29.00;90.30
17053;DHT22;8643;48.824;11.422;2023-09-12T09:20:01;29.10;90.10
17053;DHT22;8643;48.824;11.422;2023-09-12T09:22:36;29.20;89.30
17053;DHT22;8643;48.824;11.422;2023-09-12T09:25:11;29.20;87.60
17053;DHT22;8643;48.824;11.422;2023-09-12T09:30:12;29.40;91.60
17053;DHT22;8643;48.824;11.422;2023-09-12T09:32:41;29.60;90.40
17053;DHT22;8643;48.824;11.422;2023-09-12T09:35:09;29.60;90.50
17053;DHT22;8643;48.824;11.422;2023-09-12T09:37:38;29.50;86.50
17053;DHT22;8643;48.824;11.422;2023-09-12T09:40:08;29.50;87.30
17053;DHT22;8643;48.824;11.422;2023-09-12T09:42:38;29.80;85.60
17053;DHT22;8643;48.824;11.422;2023-09-12T09:45:07;29.90;85.10
17053;DHT22;8643;48.824;11.422;2023-09-12T09:47:37;29.90;90.20
17053;DHT22;8643;48.824;11.422;2023-09-12T09:50:06;29.90;86.80
17053;DHT22;8643;48.824;11.422;2023-09-12T09:52:35;29.70;88.90
17053;DHT22;8643;48.824;11.422;2023-09-12T09:55:06;29.60;86.10
17053;DHT22;8643;48.824;11.422;2023-09-12T09:57:36;29.80;85.20
17053;DHT22;8643;48.824;11.422;2023-09-12T10:00:07;29.80;88.20
17053;DHT22;8643;48.824;11.422;2023-09-12T10:02:45;29.70;88.90
17053;DHT22;8643;48.824;11.422;2023-09-12T10:05:18;29.90;90.10
17053;DHT22;8643;48.824;11.422;2023-09-12T10:07:49;30.30;89.10
17053;DHT22;8643;48.824;11.422;2023-09-12T10:10:19;30.60;88.50
17053;DHT22;8643;48.824;11.422;2023-09-12T10:12:51;30.50;86.50
17053;DHT22;8643;48.824;11.422;2023-09-12T10:15:27;30.90;86.20
17053;DHT22;8643;48.824;11.422;2023-09-12T10:18:07;30.60;83.40
17053;DHT22;8643;48.824;11.422;2023-09-12T10:20:47;30.80;84.50
17053;DHT22;8643;48.824;11.422;2023-09-12T10:23:25;31.10;85.00
17053;DHT22;8643;48.824;11.422;2023-09-12T10:25:59;31.10;82.10
17053;DHT22;8643;48.824;11.422;2023-09-12T10:28:28;31.10;84.70
17053;DHT22;8643;48.824;11.422;2023-09-12T10:31:00;31.00;83.70
17053;DHT22;8643;48.824;11.422;2023-09-12T10:33:31;31.30;84.50
17053;DHT22;8643;48.824;11.422;2023-09-12T10:36:00;31.50;82.70
17053;DHT22;8643;48.824;11.422;2023-09-12T10:38:32;31.70;84.00
17053;DHT22;8643;48.824;11.422;2023-09-12T10:41:04;31.20;82.00
17053;DHT22;8643;48.824;11.422;2023-09-12T10:43:37;31.30;80.50
17053;DHT22;8643;48.824;11.422;2023-09-12T10:46:07;31.30;81.90
17053;DHT22;8643;48.824;11.422;2023-09-12T10:51:07;31.80;79.00
17053;DHT22;8643;48.824;11.422;2023-09-12T10:53:38;31.70;81.60
17053;DHT22;8643;48.824;11.422;2023-09-12T10:56:18;31.50;79.20
17053;DHT22;8643;48.824;11.422;2023-09-12T10:59:12;31.40;82.50
17053;DHT22;8643;48.824;11.422;2023-09-12T11:01:43;31.00;78.40
17053;DHT22;8643;48.824;11.422;2023-09-12T11:04:31;31.10;78.90
17053;DHT22;8643;48.824;11.422;2023-09-12T11:07:02;31.30;78.40
17053;DHT22;8643;48.824;11.422;2023-09-12T11:10:20;31.20;76.20
17053;DHT22;8643;48.824;11.422;2023-09-12T11:12:50;30.90;78.20
17053;DHT22;8643;48.824;11.422;2023-09-12T11:15:21;30.80;78.60
17053;DHT22;8643;48.824;11.422;2023-09-12T11:18:00;30.40;81.60
17053;DHT22;8643;48.824;11.422;2023-09-12T11:20:55;30.60;81.30
17053;DHT22;8643;48.824;11.422;2023-09-12T11:23:30;30.20;82.00
17053;DHT22;8643;48.824;11.422;2023-09-12T11:26:05;30.20;82.10
17053;DHT22;8643;48.824;11.422;2023-09-12T11:28:38;30.50;87.10
17053;DHT22;8643;48.824;11.422;2023-09-12T11:31:10;30.30;84.10
17053;DHT22;8643;48.824;11.422;2023-09-12T11:33:40;30.70;80.80
17053;DHT22;8643;48.824;11.422;2023-09-12T11:36:14;30.90;82.00
17053;DHT22;8643;48.824;11.422;2023-09-12T11:38:49;30.70;80.90
17053;DHT22;8643;48.824;11.422;2023-09-12T11:41:38;31.00;79.50
17053;DHT22;8643;48.824;11.422;2023-09-12T11:44:08;30.80;83.50
17053;DHT22;8643;48.824;11.422;2023-09-12T11:46:36;30.80;81.30
17053;DHT22;8643;48.824;11.422;2023-09-12T11:49:06;30.80;82.10
17053;DHT22;8643;48.824;11.422;2023-09-12T11:51:37;30.40;81.40
17053;DHT22;8643;48.824;11.422;2023-09-12T11:54:15;30.20;79.60
17053;DHT22;8643;48.824;11.422;2023-09-12T11:56:46;30.20;81.50
17053;DHT22;8643;48.824;11.422;2023-09-12T11:59:16;29.50;81.40
17053;DHT22;8643;48.824;11.422;2023-09-12T12:01:46;29.80;82.70
17053;DHT22;8643;48.824;11.422;2023-09-12T12:04:15;30.00;83.10
17053;DHT22;8643;48.824;11.422;2023-09-12T12:06:45;30.20;81.20
17053;DHT22;8643;48.824;11.422;2023-09-12T12:09:14;30.60;80.90
17053;DHT22;8643;48.824;11.422;2023-09-12T12:11:45;30.90;79.50
17053;DHT22;8643;48.824;11.422;2023-09-12T12:14:15;31.10;79.10
17053;DHT22;8643;48.824;11.422;2023-09-12T12:16:46;30.90;80.20
17053;DHT22;8643;48.824;11.422;2023-09-12T12:19:15;31.10;79.60
17053;DHT22;8643;48.824;11.422;2023-09-12T12:21:45;31.30;79.70
17053;DHT22;8643;48.824;11.422;2023-09-12T12:24:14;31.50;77.80
17053;DHT22;8643;48.824;11.422;2023-09-12T12:26:44;31.10;78.60
17053;DHT22;8643;48.824;11.422;2023-09-12T12:29:12;31.30;77.20
17053;DHT22;8643;48.824;11.422;2023-09-12T12:31:41;31.40;77.90
17053;DHT22;8643;48.824;11.422;2023-09-12T12:34:09;31.40;75.20
17053;DHT22;8643;48.824;11.422;2023-09-12T12:36:59;31.30;74.90
17053;DHT22;8643;48.824;11.422;2023-09-12T12:39:29;31.10;76.60
17053;DHT22;8643;48.824;11.422;2023-09-12T12:41:57;30.90;74.70
17053;DHT22;8643;48.824;11.422;2023-09-12T12:44:33;30.90;74.50
17053;DHT22;8643;48.824;11.422;2023-09-12T12:47:08;30.90;74.20
17053;DHT22;8643;48.824;11.422;2023-09-12T12:49:39;30.90;75.10
17053;DHT22;8643;48.824;11.422;2023-09-12T12:52:11;30.90;74.20
17053;DHT22;8643;48.824;11.422;2023-09-12T12:54:42;31.00;74.60
17053;DHT22;8643;48.824;11.422;2023-09-12T12:59:45;31.00;75.10
17053;DHT22;8643;48.824;11.422;2023-09-12T13:02:14;30.90;73.50
17053;DHT22;8643;48.824;11.422;2023-09-12T13:04:43;30.90;75.00
17053;DHT22;8643;48.824;11.422;2023-09-12T13:07:13;30.80;75.20
17053;DHT22;8643;48.824;11.422;2023-09-12T13:09:41;30.60;76.20
17053;DHT22;8643;48.824;11.422;2023-09-12T13:12:10;30.60;73.60
17053;DHT22;8643;48.824;11.422;2023-09-12T13:14:38;30.40;75.00
17053;DHT22;8643;48.824;11.422;2023-09-12T13:17:06;30.30;74.00
17053;DHT22;8643;48.824;11.422;2023-09-12T13:19:35;30.40;73.70
17053;DHT22;8643;48.824;11.422;2023-09-12T13:22:03;30.60;73.10
17053;DHT22;8643;48.824;11.422;2023-09-12T13:24:33;25.40;71.00
17053;DHT22;8643;48.824;11.422;2023-09-12T13:27:02;30.50;73.30
17053;DHT22;8643;48.824;11.422;2023-09-12T13:29:30;30.60;74.30
17053;DHT22;8643;48.824;11.422;2023-09-12T13:31:59;30.80;74.80
17053;DHT22;8643;48.824;11.422;2023-09-12T13:34:27;30.90;75.00
17053;DHT22;8643;48.824;11.422;2023-09-12T13:36:55;30.90;74.90
17053;DHT22;8643;48.824;11.422;2023-09-12T13:42:11;31.00;73.40
17053;DHT22;8643;48.824;11.422;2023-09-12T13:44:41;31.10;74.80
17053;DHT22;8643;48.824;11.422;2023-09-12T13:47:09;31.30;73.60
17053;DHT22;8643;48.824;11.422;2023-09-12T13:49:38;31.50;74.00
17053;DHT22;8643;48.824;11.422;2023-09-12T13:52:07;31.40;72.00
17053;DHT22;8643;48.824;11.422;2023-09-12T13:57:05;31.30;70.40
17053;DHT22;8643;48.824;11.422;2023-09-12T13:59:34;31.10;71.50
17053;DHT22;8643;48.824;11.422;2023-09-12T14:02:11;30.90;72.10
17053;DHT22;8643;48.824;11.422;2023-09-12T14:04:41;30.80;73.10
17053;DHT22;8643;48.824;11.422;2023-09-12T14:07:10;30.80;70.30
17053;DHT22;8643;48.824;11.422;2023-09-12T14:09:40;30.90;71.60
17053;DHT22;8643;48.824;11.422;2023-09-12T14:12:10;30.90;74.00
17053;DHT22;8643;48.824;11.422;2023-09-12T14:14:52;30.50;71.40
17053;DHT22;8643;48.824;11.422;2023-09-12T14:17:32;30.50;70.40
17053;DHT22;8643;48.824;11.422;2023-09-12T14:20:02;30.40;71.20
17053;DHT22;8643;48.824;11.422;2023-09-12T14:22:32;30.60;70.70
17053;DHT22;8643;48.824;11.422;2023-09-12T14:25:01;30.70;74.60
17053;DHT22;8643;48.824;11.422;2023-09-12T14:27:31;30.80;72.00
17053;DHT22;8643;48.824;11.422;2023-09-12T14:30:00;30.60;71.50
17053;DHT22;8643;48.824;11.422;2023-09-12T14:32:30;30.70;71.90
17053;DHT22;8643;48.824;11.422;2023-09-12T14:34:58;30.80;73.90
17053;DHT22;8643;48.824;11.422;2023-09-12T14:37:27;30.60;75.40
17053;DHT22;8643;48.824;11.422;2023-09-12T14:39:55;30.70;71.80
17053;DHT22;8643;48.824;11.422;2023-09-12T14:42:24;30.70;74.80
17053;DHT22;8643;48.824;11.422;2023-09-12T14:44:54;30.60;75.10
17053;DHT22;8643;48.824;11.422;2023-09-12T14:47:22;30.40;73.40
17053;DHT22;8643;48.824;11.422;2023-09-12T14:49:51;30.40;77.70
17053;DHT22;8643;48.824;11.422;2023-09-12T14:54:54;30.20;72.20
17053;DHT22;8643;48.824;11.422;2023-09-12T14:57:25;30.10;75.80
17053;DHT22;8643;48.824;11.422;2023-09-12T14:59:55;30.10;80.00
17053;DHT22;8643;48.824;11.422;2023-09-12T15:02:25;30.10;80.50
17053;DHT22;8643;48.824;11.422;2023-09-12T15:04:58;29.90;77.90
17053;DHT22;8643;48.824;11.422;2023-09-12T15:07:28;29.90;76.50
17053;DHT22;8643;48.824;11.422;2023-09-12T15:09:57;29.80;76.40
17053;DHT22;8643;48.824;11.422;2023-09-12T15:14:56;29.70;72.70
17053;DHT22;8643;48.824;11.422;2023-09-12T15:22:22;29.80;72.80
17053;DHT22;8643;48.824;11.422;2023-09-12T15:24:51;29.80;79.40
17053;DHT22;8643;48.824;11.422;2023-09-12T15:27:20;29.70;78.90
17053;DHT22;8643;48.824;11.422;2023-09-12T15:29:48;29.60;80.70
17053;DHT22;8643;48.824;11.422;2023-09-12T15:32:18;29.50;77.40
17053;DHT22;8643;48.824;11.422;2023-09-12T15:34:46;29.50;72.30
17053;DHT22;8643;48.824;11.422;2023-09-12T15:37:14;29.70;72.20
17053;DHT22;8643;48.824;11.422;2023-09-12T15:39:48;29.90;71.90
17053;DHT22;8643;48.824;11.422;2023-09-12T15:42:17;30.10;71.00
17053;DHT22;8643;48.824;11.422;2023-09-12T15:45:04;30.20;71.10
17053;DHT22;8643;48.824;11.422;2023-09-12T15:47:36;30.30;71.00
17053;DHT22;8643;48.824;11.422;2023-09-12T15:50:07;30.30;72.00
17053;DHT22;8643;48.824;11.422;2023-09-12T15:52:35;30.30;74.10
17053;DHT22;8643;48.824;11.422;2023-09-12T15:55:05;30.30;71.50
17053;DHT22;8643;48.824;11.422;2023-09-12T15:57:35;30.30;69.70
17053;DHT22;8643;48.824;11.422;2023-09-12T16:00:04;30.30;70.00
17053;DHT22;8643;48.824;11.422;2023-09-12T16:02:41;30.20;74.20
17053;DHT22;8643;48.824;11.422;2023-09-12T16:05:10;30.00;70.90
17053;DHT22;8643;48.824;11.422;2023-09-12T16:07:39;29.70;76.00
17053;DHT22;8643;48.824;11.422;2023-09-12T16:10:08;29.10;79.60
17053;DHT22;8643;48.824;11.422;2023-09-12T16:12:39;28.60;82.50
17053;DHT22;8643;48.824;11.422;2023-09-12T16:15:08;28.10;82.00
17053;DHT22;8643;48.824;11.422;2023-09-12T16:17:37;27.50;82.00
17053;DHT22;8643;48.824;11.422;2023-09-12T16:20:11;27.00;83.50
17053;DHT22;8643;48.824;11.422;2023-09-12T16:22:41;26.70;85.30
17053;DHT22;8643;48.824;11.422;2023-09-12T16:27:38;26.00;90.60
17053;DHT22;8643;48.824;11.422;2023-09-12T16:30:07;25.70;91.80
17053;DHT22;8643;48.824;11.422;2023-09-12T16:32:37;21.60;91.00
17053;DHT22;8643;48.824;11.422;2023-09-12T16:35:07;25.20;92.90
17053;DHT22;8643;48.824;11.422;2023-09-12T16:37:37;25.00;93.30
17053;DHT22;8643;48.824;11.422;2023-09-12T16:40:07;24.80;93.40
17053;DHT22;8643;48.824;11.422;2023-09-12T16:42:37;24.70;94.60
17053;DHT22;8643;48.824;11.422;2023-09-12T16:45:07;24.60;95.00
17053;DHT22;8643;48.824;11.422;2023-09-12T16:47:36;24.50;95.90
17053;DHT22;8643;48.824;11.422;2023-09-12T16:50:06;24.40;96.40
17053;DHT22;8643;48.824;11.422;2023-09-12T16:52:38;24.30;96.70
17053;DHT22;8643;48.824;11.422;2023-09-12T16:55:07;24.20;95.50
17053;DHT22;8643;48.824;11.422;2023-09-12T16:57:37;24.10;97.10